Terminal Aerodrome Forecast
Issued by NWS

Home | Current Version | Previous Version | Text Only | Print | Product List | Glossary On
Versions: 1 2 3 4 5 6 7 8 9 10 11 12 13 14 15 16 17 18
709
FTUS45 KTFX 091132
TAFBZN
TAF
KBZN 091132Z 0912/1012 33006KT 3SM -SN OVC040
      TEMPO 0912/0915 2SM -SN BR OVC025
     FM091500 VRB03KT P6SM BKN045
     FM100200 VRB03KT 2SM -SN OVC020
     FM100800 VRB03KT P6SM -SN OVC015=

USA.gov is the U.S. government's official web portal to all federal, state and local government web resources and services.